createdAt,value
2019-06-27T00:02:15.894Z,102076.12
2019-06-27T00:04:54.403Z,102080.02
2019-06-27T00:07:33.067Z,102078.05
2019-06-27T00:10:08.353Z,102081.44
2019-06-27T00:12:45.773Z,102087.01
2019-06-27T00:15:28.614Z,102088.82
2019-06-27T00:18:07.982Z,102093.86
2019-06-27T00:21:01.586Z,102090.06
2019-06-27T00:23:37.358Z,102096.95
2019-06-27T00:26:08.610Z,102092.44
2019-06-27T00:28:39.919Z,102094.28
2019-06-27T00:31:11.268Z,102097.20
2019-06-27T00:33:42.529Z,102100.87
2019-06-27T00:36:14.007Z,102097.16
2019-06-27T00:38:45.279Z,102100.06
2019-06-27T00:41:16.466Z,102102.05
2019-06-27T00:43:47.770Z,102100.87
2019-06-27T00:46:19.070Z,102096.91
2019-06-27T00:48:50.261Z,102093.58
2019-06-27T00:51:21.421Z,102091.50
2019-06-27T00:53:52.720Z,102097.92
2019-06-27T00:56:24.010Z,102099.61
2019-06-27T00:58:55.311Z,102103.32
2019-06-27T01:01:26.608Z,102098.69
2019-06-27T01:03:57.869Z,102094.82
2019-06-27T01:06:29.168Z,102100.36
2019-06-27T01:09:02.750Z,102095.31
2019-06-27T01:11:34.071Z,102096.85
2019-06-27T01:14:07.360Z,102088.27
2019-06-27T01:16:38.699Z,102090.79
2019-06-27T01:19:10.076Z,102093.48
2019-06-27T01:21:41.441Z,102092.82
2019-06-27T01:24:12.750Z,102092.14
2019-06-27T01:26:44.034Z,102089.11
2019-06-27T01:29:15.290Z,102094.66
2019-06-27T01:31:46.705Z,102094.33
2019-06-27T01:34:18.012Z,102092.62
2019-06-27T01:36:49.356Z,102095.47
2019-06-27T01:39:20.594Z,102093.27
2019-06-27T01:41:51.843Z,102095.47
2019-06-27T01:44:44.493Z,102092.08
2019-06-27T01:47:15.715Z,102091.69
2019-06-27T01:49:47.011Z,102090.66
2019-06-27T01:52:18.309Z,102088.99
2019-06-27T01:54:49.645Z,102087.48
2019-06-27T01:57:20.868Z,102090.03
2019-06-27T01:59:52.186Z,102088.91
2019-06-27T02:02:23.425Z,102087.39
2019-06-27T02:04:54.728Z,102096.81
2019-06-27T02:07:25.978Z,102099.70
2019-06-27T02:09:57.241Z,102095.83
2019-06-27T02:12:28.532Z,102102.36
2019-06-27T02:14:59.977Z,102103.38
2019-06-27T02:17:31.301Z,102099.02
2019-06-27T02:20:02.598Z,102096.00
2019-06-27T02:22:33.979Z,102101.38
2019-06-27T02:25:06.116Z,102107.25
2019-06-27T02:27:37.474Z,102105.41
2019-06-27T02:30:09.354Z,102104.73
2019-06-27T02:32:40.647Z,102114.50
2019-06-27T02:35:12.313Z,102122.05
2019-06-27T02:37:43.621Z,102121.19
2019-06-27T02:40:15.057Z,102126.90
2019-06-27T02:42:46.349Z,102127.75
2019-06-27T02:45:17.827Z,102128.08
2019-06-27T02:47:49.072Z,102127.92
2019-06-27T02:50:20.415Z,102122.70
2019-06-27T02:52:51.703Z,102126.56
2019-06-27T02:55:22.943Z,102121.02
2019-06-27T02:57:54.337Z,102122.00
2019-06-27T03:00:25.900Z,102122.04
2019-06-27T03:02:57.305Z,102131.78
2019-06-27T03:05:28.541Z,102128.60
2019-06-27T03:07:59.943Z,102128.12
2019-06-27T03:10:31.247Z,102123.06
2019-06-27T03:13:02.517Z,102118.70
2019-06-27T03:15:33.805Z,102131.83
2019-06-27T03:18:05.151Z,102133.85
2019-06-27T03:20:36.475Z,102134.34
2019-06-27T03:23:07.766Z,102133.66
2019-06-27T03:25:38.980Z,102132.16
2019-06-27T03:28:10.263Z,102138.02
2019-06-27T03:30:41.559Z,102134.31
2019-06-27T03:33:12.933Z,102140.52
2019-06-27T03:35:44.090Z,102137.82
2019-06-27T03:38:15.406Z,102137.00
2019-06-27T03:40:46.584Z,102136.52
2019-06-27T03:43:17.859Z,102134.67
2019-06-27T03:45:49.209Z,102138.70
2019-06-27T03:48:20.505Z,102137.85
2019-06-27T03:50:55.905Z,102140.38
2019-06-27T03:53:24.712Z,102134.34
2019-06-27T03:55:56.106Z,102138.87
2019-06-27T03:58:27.439Z,102136.19
2019-06-27T04:00:58.768Z,102136.52
2019-06-27T04:03:30.088Z,102132.97
2019-06-27T04:06:01.462Z,102137.00
2019-06-27T04:08:32.823Z,102142.25
2019-06-27T04:11:04.218Z,102146.12
2019-06-27T04:13:35.487Z,102142.41
2019-06-27T04:16:06.732Z,102145.59
2019-06-27T04:18:38.029Z,102144.25
2019-06-27T04:21:09.310Z,102144.78
2019-06-27T04:23:40.605Z,102149.09
2019-06-27T04:26:11.929Z,102149.47
2019-06-27T04:28:43.218Z,102145.27
2019-06-27T04:31:14.490Z,102146.62
2019-06-27T04:33:45.758Z,102144.09
2019-06-27T04:36:17.040Z,102149.80
2019-06-27T04:38:51.409Z,102142.22
2019-06-27T04:41:22.728Z,102141.53
2019-06-27T04:43:54.073Z,102152.98
2019-06-27T04:46:25.370Z,102148.91
2019-06-27T04:48:56.643Z,102153.11
2019-06-27T04:51:28.203Z,102154.08
2019-06-27T04:53:59.537Z,102156.61
2019-06-27T04:56:30.789Z,102151.59
2019-06-27T04:59:02.149Z,102149.06
2019-06-27T05:01:33.398Z,102145.89
2019-06-27T05:04:04.846Z,102152.62
2019-06-27T05:06:36.273Z,102157.12
2019-06-27T05:09:22.481Z,102151.22
2019-06-27T05:11:53.777Z,102151.23
2019-06-27T05:14:27.402Z,102152.30
2019-06-27T05:16:58.704Z,102156.61
2019-06-27T05:19:29.959Z,102164.34
2019-06-27T05:22:01.346Z,102154.88
2019-06-27T05:24:32.627Z,102152.45
2019-06-27T05:27:04.096Z,102164.84
2019-06-27T05:29:35.464Z,102161.82
2019-06-27T05:32:06.863Z,102162.14
2019-06-27T05:34:38.200Z,102163.00
2019-06-27T05:37:09.333Z,102171.81
2019-06-27T05:39:40.540Z,102174.38
2019-06-27T05:42:11.958Z,102175.28
2019-06-27T05:44:43.317Z,102177.03
2019-06-27T05:47:14.898Z,102182.14
2019-06-27T05:49:46.454Z,102177.63
2019-06-27T05:52:18.071Z,102184.25
2019-06-27T05:54:49.658Z,102183.22
2019-06-27T05:57:21.337Z,102190.05
2019-06-27T05:59:52.641Z,102185.49
2019-06-27T06:02:23.940Z,102181.95
2019-06-27T06:04:55.269Z,102184.88
2019-06-27T06:07:26.511Z,102189.02
2019-06-27T06:09:57.765Z,102190.65
2019-06-27T06:12:29.130Z,102185.89
2019-06-27T06:15:00.464Z,102192.06
2019-06-27T06:17:31.802Z,102196.09
2019-06-27T06:20:03.186Z,102197.23
2019-06-27T06:22:34.524Z,102201.38
2019-06-27T06:25:05.905Z,102191.59
2019-06-27T06:27:37.331Z,102203.08
2019-06-27T06:30:09.540Z,102197.13
2019-06-27T06:32:40.842Z,102205.03
2019-06-27T06:35:12.365Z,102200.45
2019-06-27T06:37:43.680Z,102201.81
2019-06-27T06:40:16.472Z,102210.58
2019-06-27T06:42:49.601Z,102213.12
2019-06-27T06:45:20.928Z,102202.45
2019-06-27T06:47:52.374Z,102207.83
2019-06-27T06:50:23.701Z,102219.63
2019-06-27T06:52:55.585Z,102219.85
2019-06-27T06:55:26.872Z,102220.18
2019-06-27T06:57:58.115Z,102231.65
2019-06-27T07:00:29.633Z,102221.63
2019-06-27T07:03:00.836Z,102233.13
2019-06-27T07:05:32.106Z,102226.99
2019-06-27T07:08:03.353Z,102223.42
2019-06-27T07:10:34.565Z,102230.55
2019-06-27T07:13:05.900Z,102222.77
2019-06-27T07:15:37.168Z,102222.59
2019-06-27T07:18:08.495Z,102218.33
2019-06-27T07:20:39.775Z,102218.65
2019-06-27T07:23:11.073Z,102227.58
2019-06-27T07:25:42.355Z,102220.34
2019-06-27T07:28:13.603Z,102219.87
2019-06-27T07:30:44.956Z,102215.00
2019-06-27T07:33:16.179Z,102213.79
2019-06-27T07:35:47.397Z,102219.73
2019-06-27T07:38:18.768Z,102222.81
2019-06-27T07:40:50.022Z,102223.63
2019-06-27T07:43:21.181Z,102214.34
2019-06-27T07:45:52.331Z,102218.65
2019-06-27T07:48:23.981Z,102219.61
2019-06-27T07:50:55.266Z,102225.28
2019-06-27T07:53:26.541Z,102220.67
2019-06-27T07:55:57.766Z,102220.05
2019-06-27T07:58:28.967Z,102222.66
2019-06-27T08:01:00.333Z,102219.03
2019-06-27T08:03:31.670Z,102219.05
2019-06-27T08:06:03.005Z,102217.98
2019-06-27T08:08:34.328Z,102218.08
2019-06-27T08:11:05.808Z,102215.89
2019-06-27T08:13:37.019Z,102216.94
2019-06-27T08:16:08.304Z,102215.73
2019-06-27T08:18:39.725Z,102208.23
2019-06-27T08:21:11.120Z,102209.09
2019-06-27T08:23:42.593Z,102210.16
2019-06-27T08:26:13.968Z,102208.84
2019-06-27T08:28:45.309Z,102207.31
2019-06-27T08:31:16.584Z,102207.62
2019-06-27T08:33:47.880Z,102200.88
2019-06-27T08:36:19.212Z,102209.36
2019-06-27T08:38:50.518Z,102200.94
2019-06-27T08:41:21.688Z,102192.91
2019-06-27T08:43:53.286Z,102194.62
2019-06-27T08:46:24.598Z,102202.53
2019-06-27T08:48:59.018Z,102200.42
2019-06-27T08:51:30.362Z,102202.33
2019-06-27T08:54:01.661Z,102206.81
2019-06-27T08:56:32.963Z,102201.39
2019-06-27T08:59:04.364Z,102196.90
2019-06-27T09:01:35.733Z,102195.16
2019-06-27T09:04:06.939Z,102200.52
2019-06-27T09:06:38.392Z,102202.30
2019-06-27T09:09:09.682Z,102205.73
2019-06-27T09:11:40.991Z,102206.22
2019-06-27T09:14:12.407Z,102205.50
2019-06-27T09:16:46.572Z,102198.27
2019-06-27T09:19:16.489Z,102201.14
2019-06-27T09:21:47.734Z,102195.98
2019-06-27T09:24:19.041Z,102196.88
2019-06-27T09:26:50.316Z,102194.78
2019-06-27T09:29:21.643Z,102203.02
2019-06-27T09:31:52.991Z,102194.32
2019-06-27T09:34:24.325Z,102188.59
2019-06-27T09:36:55.656Z,102195.70
2019-06-27T09:39:27.180Z,102193.55
2019-06-27T09:41:58.544Z,102195.38
2019-06-27T09:44:29.944Z,102195.56
2019-06-27T09:47:03.310Z,102192.53
2019-06-27T09:49:34.599Z,102187.88
2019-06-27T09:52:05.884Z,102183.07
2019-06-27T09:54:37.219Z,102190.45
2019-06-27T09:57:08.477Z,102189.27
2019-06-27T09:59:39.991Z,102189.41
2019-06-27T10:02:11.282Z,102187.33
2019-06-27T10:04:42.542Z,102179.92
2019-06-27T10:07:13.812Z,102194.24
2019-06-27T10:09:45.226Z,102195.16
2019-06-27T10:12:21.025Z,102193.00
2019-06-27T10:14:55.282Z,102184.75
2019-06-27T10:17:26.554Z,102179.67
2019-06-27T10:19:58.086Z,102177.72
2019-06-27T10:22:29.644Z,102182.09
2019-06-27T10:25:00.833Z,102187.67
2019-06-27T10:27:32.366Z,102187.77
2019-06-27T10:30:06.998Z,102178.98
2019-06-27T10:32:38.858Z,102182.95
2019-06-27T10:35:11.138Z,102188.57
2019-06-27T10:37:42.614Z,102182.51
2019-06-27T10:40:15.448Z,102174.85
2019-06-27T10:43:05.733Z,102180.36
2019-06-27T10:45:38.113Z,102176.86
2019-06-27T10:48:09.528Z,102178.39
2019-06-27T10:50:40.966Z,102171.49
2019-06-27T10:53:12.218Z,102165.52
2019-06-27T10:55:46.286Z,102164.30
2019-06-27T10:58:17.677Z,102159.67
2019-06-27T11:00:48.986Z,102158.16
2019-06-27T11:03:20.296Z,102168.42
2019-06-27T11:05:51.679Z,102155.02
2019-06-27T11:08:22.921Z,102153.24
2019-06-27T11:10:54.237Z,102149.73
2019-06-27T11:13:25.539Z,102163.77
2019-06-27T11:15:56.852Z,102151.96
2019-06-27T11:18:28.141Z,102152.15
2019-06-27T11:20:59.353Z,102164.91
2019-06-27T11:23:30.662Z,102161.16
2019-06-27T11:26:01.933Z,102153.50
2019-06-27T11:28:33.113Z,102149.59
2019-06-27T11:31:05.929Z,102150.15
2019-06-27T11:33:37.087Z,102151.92
2019-06-27T11:36:08.819Z,102155.12
2019-06-27T11:38:40.042Z,102139.80
2019-06-27T11:41:11.496Z,102142.08
2019-06-27T11:43:45.333Z,102139.07
2019-06-27T11:46:16.543Z,102129.72
2019-06-27T11:48:47.778Z,102135.94
2019-06-27T11:51:18.995Z,102131.67
2019-06-27T11:53:53.488Z,102132.73
2019-06-27T11:56:24.684Z,102123.30
2019-06-27T11:58:55.893Z,102127.97
2019-06-27T12:01:27.141Z,102130.02
2019-06-27T12:03:58.411Z,102123.34
2019-06-27T12:06:29.757Z,102120.22
2019-06-27T12:09:01.006Z,102117.59
2019-06-27T12:11:32.338Z,102119.61
2019-06-27T12:14:03.621Z,102114.25
2019-06-27T12:16:34.874Z,102110.02
2019-06-27T12:19:07.595Z,102115.94
2019-06-27T12:21:41.172Z,102119.41
2019-06-27T12:24:12.461Z,102120.46
2019-06-27T12:26:43.655Z,102114.03
2019-06-27T12:29:14.949Z,102110.38
2019-06-27T12:31:46.272Z,102100.84
2019-06-27T12:34:17.568Z,102102.38
2019-06-27T12:36:48.746Z,102098.80
2019-06-27T12:39:20.019Z,102097.36
2019-06-27T12:41:51.284Z,102094.73
2019-06-27T12:44:22.502Z,102091.94
2019-06-27T12:46:53.768Z,102080.94
2019-06-27T12:49:44.500Z,102080.64
2019-06-27T12:51:59.539Z,102081.55
2019-06-27T12:54:30.800Z,102081.56
2019-06-27T12:57:02.096Z,102079.97
2019-06-27T12:59:33.404Z,102077.22
2019-06-27T13:02:04.625Z,102081.56
2019-06-27T13:04:36.008Z,102074.14
2019-06-27T13:07:07.439Z,102078.28
2019-06-27T13:09:38.656Z,102073.53
2019-06-27T13:12:10.012Z,102073.40
2019-06-27T13:14:41.308Z,102073.70
2019-06-27T13:17:12.671Z,102073.66
2019-06-27T13:19:43.987Z,102073.77
2019-06-27T13:22:15.286Z,102067.69
2019-06-27T13:24:46.682Z,102060.80
2019-06-27T13:27:18.008Z,102059.50
2019-06-27T13:29:49.282Z,102053.41
2019-06-27T13:32:20.557Z,102053.96
2019-06-27T13:34:51.842Z,102055.05
2019-06-27T13:37:23.119Z,102052.39
2019-06-27T13:39:54.431Z,102053.48
2019-06-27T13:42:25.657Z,102047.09
2019-06-27T13:44:57.105Z,102039.84
2019-06-27T13:47:28.363Z,102042.61
2019-06-27T13:49:59.635Z,102041.77
2019-06-27T13:52:30.820Z,102037.41
2019-06-27T13:55:02.115Z,102032.52
2019-06-27T13:57:33.489Z,102047.75
2019-06-27T14:00:05.264Z,102018.52
2019-06-27T14:02:36.457Z,102027.22
2019-06-27T14:05:07.898Z,102025.29
2019-06-27T14:07:39.280Z,102020.71
2019-06-27T14:10:10.971Z,102013.37
2019-06-27T14:12:44.724Z,102020.83
2019-06-27T14:15:15.655Z,102014.78
2019-06-27T14:17:46.949Z,102014.31
2019-06-27T14:20:18.507Z,102013.44
2019-06-27T14:22:49.791Z,102002.13
2019-06-27T14:25:21.063Z,102012.93
2019-06-27T14:27:52.273Z,102007.11
2019-06-27T14:30:23.775Z,102013.89
2019-06-27T14:32:55.057Z,102008.02
2019-06-27T14:35:26.675Z,102014.53
2019-06-27T14:37:57.929Z,102005.78
2019-06-27T14:40:29.248Z,102014.03
2019-06-27T14:43:03.222Z,102001.34
2019-06-27T14:45:34.520Z,101996.02
2019-06-27T14:48:05.777Z,101994.17
2019-06-27T14:50:37.536Z,101997.91
2019-06-27T14:53:08.705Z,102000.59
2019-06-27T14:55:39.869Z,101987.16
2019-06-27T14:58:11.141Z,101999.75
2019-06-27T15:00:42.542Z,101990.02
2019-06-27T15:03:13.890Z,101989.55
2019-06-27T15:05:45.270Z,101985.02
2019-06-27T15:08:16.454Z,101986.16
2019-06-27T15:10:47.709Z,101987.24
2019-06-27T15:13:19.102Z,101988.77
2019-06-27T15:15:50.352Z,101991.09
2019-06-27T15:18:21.730Z,101986.73
2019-06-27T15:20:53.223Z,101990.17
2019-06-27T15:23:24.491Z,101980.55
2019-06-27T15:25:55.801Z,101978.61
2019-06-27T15:28:27.028Z,101980.44
2019-06-27T15:31:00.942Z,101988.30
2019-06-27T15:33:41.297Z,101980.23
2019-06-27T15:36:10.691Z,101988.76
2019-06-27T15:38:41.934Z,101988.72
2019-06-27T15:41:13.211Z,101983.16
2019-06-27T15:43:44.545Z,101980.30
2019-06-27T15:46:15.822Z,101973.13
2019-06-27T15:48:47.158Z,101979.30
2019-06-27T15:51:18.446Z,101967.85
2019-06-27T15:53:49.779Z,101978.73
2019-06-27T15:56:21.068Z,101967.10
2019-06-27T15:58:52.363Z,101964.34
2019-06-27T16:01:23.617Z,101972.02
2019-06-27T16:03:54.912Z,101963.42
2019-06-27T16:06:26.371Z,101965.23
2019-06-27T16:08:57.669Z,101963.87
2019-06-27T16:11:29.012Z,101958.73
2019-06-27T16:14:00.270Z,101963.78
2019-06-27T16:16:32.167Z,101948.28
2019-06-27T16:19:08.256Z,101956.57
2019-06-27T16:21:41.533Z,101949.59
2019-06-27T16:28:05.743Z,101950.27
2019-06-27T16:31:09.728Z,101944.88
2019-06-27T16:33:41.047Z,101944.05
2019-06-27T16:36:25.005Z,101955.35
2019-06-27T16:38:45.413Z,101945.45
2019-06-27T16:41:16.676Z,101945.45
2019-06-27T16:43:47.939Z,101944.59
2019-06-27T16:46:19.290Z,101951.72
2019-06-27T16:48:50.685Z,101949.39
2019-06-27T16:51:22.011Z,101947.20
2019-06-27T16:53:53.279Z,101955.27
2019-06-27T16:56:24.542Z,101937.67
2019-06-27T16:58:58.261Z,101942.63
2019-06-27T17:01:29.647Z,101948.72
2019-06-27T17:04:02.233Z,101943.11
2019-06-27T17:06:41.975Z,101950.77
2019-06-27T17:09:08.149Z,101955.95
2019-06-27T17:11:39.303Z,101953.09
2019-06-27T17:14:10.549Z,101949.23
2019-06-27T17:16:41.849Z,101952.68
2019-06-27T17:19:13.211Z,101954.25
2019-06-27T17:21:44.514Z,101956.75
2019-06-27T17:24:37.087Z,101954.14
2019-06-27T17:27:08.689Z,101951.29
2019-06-27T17:29:40.056Z,101951.87
2019-06-27T17:32:11.509Z,101950.90
2019-06-27T17:34:42.940Z,101952.84
2019-06-27T17:37:14.222Z,101959.33
2019-06-27T17:39:45.511Z,101961.37
2019-06-27T17:42:16.721Z,101958.14
2019-06-27T17:44:48.019Z,101954.16
2019-06-27T17:47:20.378Z,101961.64
2019-06-27T17:49:51.792Z,101962.37
2019-06-27T17:52:23.089Z,101965.24
2019-06-27T17:54:56.841Z,101963.22
2019-06-27T17:57:40.599Z,101970.09
2019-06-27T18:00:12.243Z,101966.88
2019-06-27T18:02:43.586Z,101965.77
2019-06-27T18:05:18.147Z,101965.23
2019-06-27T18:07:48.227Z,101971.84
2019-06-27T18:10:20.688Z,101963.41
2019-06-27T18:12:51.808Z,101971.70
2019-06-27T18:15:23.415Z,101971.95
2019-06-27T18:17:54.872Z,101967.03
2019-06-27T18:20:26.067Z,101973.02
2019-06-27T18:22:57.416Z,101972.47
2019-06-27T18:25:28.831Z,101971.02
2019-06-27T18:28:00.095Z,101967.95
2019-06-27T18:30:31.545Z,101965.52
2019-06-27T18:33:02.888Z,101970.14
2019-06-27T18:35:35.394Z,101969.06
2019-06-27T18:38:14.931Z,101970.14
2019-06-27T18:40:46.364Z,101971.77
2019-06-27T18:43:17.661Z,101976.08
2019-06-27T18:45:48.937Z,101971.98
2019-06-27T18:48:20.104Z,101968.98
2019-06-27T18:50:51.550Z,101962.83
2019-06-27T18:53:22.852Z,101971.19
2019-06-27T18:55:55.801Z,101966.92
2019-06-27T18:58:30.257Z,101974.88
2019-06-27T19:01:03.286Z,101971.14
2019-06-27T19:03:35.535Z,101973.11
2019-06-27T19:06:06.889Z,101965.61
2019-06-27T19:08:38.299Z,101970.30
2019-06-27T19:11:09.551Z,101971.98
2019-06-27T19:13:40.667Z,101968.75
2019-06-27T19:16:11.873Z,101972.77
2019-06-27T19:18:54.767Z,101976.19
2019-06-27T19:21:56.681Z,101975.53
2019-06-27T19:24:42.617Z,101978.00
2019-06-27T19:27:13.880Z,101981.42
2019-06-27T19:29:45.505Z,101960.23
2019-06-27T19:32:16.738Z,101988.45
2019-06-27T19:34:48.000Z,101987.58
2019-06-27T19:37:19.156Z,101984.30
2019-06-27T19:39:50.388Z,101991.87
2019-06-27T19:42:21.691Z,101985.91
2019-06-27T19:44:53.001Z,101990.31
2019-06-27T19:47:24.229Z,101987.05
2019-06-27T19:49:55.674Z,101994.61
2019-06-27T19:52:26.903Z,102001.73
2019-06-27T19:54:58.180Z,101998.69
2019-06-27T19:57:29.422Z,102003.47
2019-06-27T20:00:00.694Z,102004.11
2019-06-27T20:02:36.079Z,102003.07
2019-06-27T20:05:05.162Z,102015.31
2019-06-27T20:07:36.566Z,102011.86
2019-06-27T20:10:11.888Z,102015.85
2019-06-27T20:12:42.648Z,102014.78
2019-06-27T20:15:14.103Z,102018.11
2019-06-27T20:17:45.351Z,102015.78
2019-06-27T20:20:17.026Z,102024.11
2019-06-27T20:22:48.400Z,102019.60
2019-06-27T20:25:19.873Z,102018.12
2019-06-27T20:27:51.185Z,102022.30
2019-06-27T20:30:23.150Z,102022.94
2019-06-27T20:32:54.705Z,102030.70
2019-06-27T20:35:26.048Z,102027.30
2019-06-27T20:37:58.406Z,102033.06
2019-06-27T20:40:30.502Z,102030.10
2019-06-27T20:43:03.429Z,102033.66
2019-06-27T20:45:35.012Z,102030.19
2019-06-27T20:48:06.318Z,102036.34
2019-06-27T20:50:39.094Z,102034.72
2019-06-27T20:53:10.417Z,102033.91
2019-06-27T20:55:41.868Z,102040.42
2019-06-27T20:58:16.608Z,102036.66
2019-06-27T21:00:47.903Z,102036.20
2019-06-27T21:03:29.033Z,102030.17
2019-06-27T21:06:00.756Z,102035.15
2019-06-27T21:08:32.215Z,102031.53
2019-06-27T21:11:05.760Z,102039.36
2019-06-27T21:13:41.616Z,102031.98
2019-06-27T21:16:15.214Z,102038.87
2019-06-27T21:18:48.359Z,102040.31
2019-06-27T21:21:19.553Z,102048.93
2019-06-27T21:23:50.772Z,102038.00
2019-06-27T21:26:22.002Z,102045.62
2019-06-27T21:28:53.450Z,102044.01
2019-06-27T21:31:24.722Z,102046.61
2019-06-27T21:33:56.437Z,102050.53
2019-06-27T21:36:27.651Z,102044.82
2019-06-27T21:39:07.704Z,102045.87
2019-06-27T21:41:33.011Z,102044.39
2019-06-27T21:44:04.306Z,102040.75
2019-06-27T21:46:35.602Z,102056.78
2019-06-27T21:49:06.861Z,102047.05
2019-06-27T21:51:38.296Z,102047.91
2019-06-27T21:54:09.618Z,102041.20
2019-06-27T21:56:41.373Z,102043.61
2019-06-27T21:59:12.652Z,102044.81
2019-06-27T22:01:46.021Z,102039.41
2019-06-27T22:04:19.598Z,102055.41
2019-06-27T22:06:51.004Z,102049.38
2019-06-27T22:09:25.096Z,102050.11
2019-06-27T22:11:55.399Z,102049.66
2019-06-27T22:14:26.601Z,102052.56
2019-06-27T22:16:57.871Z,102054.41
2019-06-27T22:19:29.167Z,102054.41
2019-06-27T22:22:00.562Z,102051.40
2019-06-27T22:24:32.102Z,102051.77
2019-06-27T22:27:03.548Z,102046.88
2019-06-27T22:29:34.902Z,102039.34
2019-06-27T22:32:06.238Z,102054.14
2019-06-27T22:34:37.600Z,102049.92
2019-06-27T22:37:09.883Z,102048.45
2019-06-27T22:39:58.633Z,102052.29
2019-06-27T22:42:47.514Z,102051.64
2019-06-27T22:45:36.778Z,102056.03
2019-06-27T22:48:12.735Z,102048.13
2019-06-27T22:50:59.709Z,102057.56
2019-06-27T22:53:33.971Z,102053.52
2019-06-27T22:56:05.531Z,102043.95
2019-06-27T22:58:36.824Z,102052.00
2019-06-27T23:01:09.281Z,102055.70
2019-06-27T23:03:41.507Z,102039.93
2019-06-27T23:06:13.928Z,102038.41
2019-06-27T23:08:46.071Z,102039.59
2019-06-27T23:11:17.433Z,102040.42
2019-06-27T23:13:49.655Z,102036.70
2019-06-27T23:16:21.851Z,102037.05
2019-06-27T23:18:53.813Z,102038.40
2019-06-27T23:21:26.288Z,102033.66
2019-06-27T23:23:59.300Z,102037.54
2019-06-27T23:26:31.736Z,102043.91
2019-06-27T23:29:03.280Z,102042.73
2019-06-27T23:31:34.741Z,102038.17
2019-06-27T23:34:11.194Z,102033.66
2019-06-27T23:36:53.042Z,102038.54
2019-06-27T23:39:24.237Z,102033.66
2019-06-27T23:41:55.787Z,102032.61
2019-06-27T23:47:05.158Z,102024.19
2019-06-27T23:49:36.440Z,102022.33
2019-06-27T23:52:07.853Z,102018.82
2019-06-27T23:54:39.127Z,102012.41
2019-06-27T23:57:10.801Z,102011.26
2019-06-27T23:59:42.042Z,102012.05
